Time;durP1;ratioP1;P1;durP2;ratioP2;P2;SDS_P1;SDS_P2;PMS_P1;PMS_P2;Temp;Humidity;BMP_temperature;BMP_pressure;BME280_temperature;BME280_humidity;BME280_pressure;Samples;Min_cycle;Max_cycle;Signal;HPM_P1;HPM_P2
2023/04/28 00:02:01;;;;;;;15.23;14.43;;;12.40;99.90;;;;;;4895562;29;20470;-73
2023/04/28 00:04:28;;;;;;;16.90;15.97;;;12.40;99.90;;;;;;4895381;29;20834;-74
2023/04/28 00:06:55;;;;;;;16.10;15.07;;;12.40;99.90;;;;;;4895351;29;20467;-74
2023/04/28 00:09:22;;;;;;;15.77;14.77;;;12.30;99.90;;;;;;4895365;29;20455;-75
2023/04/28 00:11:48;;;;;;;16.10;15.30;;;12.40;99.90;;;;;;4895358;29;20459;-75
2023/04/28 00:14:16;;;;;;;15.43;14.50;;;12.40;99.90;;;;;;4895417;29;20795;-74
2023/04/28 00:16:43;;;;;;;15.40;14.30;;;12.30;99.90;;;;;;4895189;29;20945;-73
2023/04/28 00:19:09;;;;;;;14.83;14.03;;;12.30;99.90;;;;;;4894675;29;20459;-74
2023/04/28 00:21:36;;;;;;;15.80;14.70;;;12.30;99.90;;;;;;4894966;29;20451;-76
2023/04/28 00:24:03;;;;;;;15.83;14.70;;;12.10;99.90;;;;;;4895147;29;20888;-73
2023/04/28 00:26:30;;;;;;;17.10;15.90;;;12.20;99.90;;;;;;4895302;29;20467;-74
2023/04/28 00:28:56;;;;;;;17.17;16.07;;;12.30;99.90;;;;;;4894991;29;20527;-73
2023/04/28 00:31:24;;;;;;;16.77;15.77;;;12.40;99.90;;;;;;4894837;29;20562;-74
2023/04/28 00:33:51;;;;;;;18.13;16.60;;;12.40;99.90;;;;;;4894623;29;20490;-76
2023/04/28 00:36:18;;;;;;;18.87;17.63;;;12.50;99.90;;;;;;4894797;29;20470;-74
2023/04/28 00:38:44;;;;;;;20.23;18.57;;;12.50;99.90;;;;;;4895003;29;20459;-74
2023/04/28 00:41:11;;;;;;;17.67;16.37;;;12.60;99.90;;;;;;4894746;29;20458;-75
2023/04/28 00:43:45;;;;;;;17.87;16.20;;;12.60;99.90;;;;;;4894640;29;20550;-74
2023/04/28 00:46:19;;;;;;;15.80;14.87;;;12.60;99.90;;;;;;4894606;29;20533;-75
2023/04/28 00:48:48;;;;;;;18.40;16.83;;;12.60;99.90;;;;;;4894941;29;20459;-75
2023/04/28 00:51:15;;;;;;;19.83;18.10;;;12.60;99.90;;;;;;4894995;29;20463;-74
2023/04/28 00:53:42;;;;;;;16.23;15.13;;;12.60;99.90;;;;;;4894635;29;20503;-74
2023/04/28 00:56:10;;;;;;;27.73;17.50;;;12.70;99.90;;;;;;4894705;29;20527;-74
2023/04/28 00:58:37;;;;;;;18.27;16.83;;;12.70;99.90;;;;;;4894654;29;20459;-74
2023/04/28 01:01:04;;;;;;;17.47;15.93;;;12.70;99.90;;;;;;4894704;29;20459;-74
2023/04/28 01:03:33;;;;;;;17.73;16.33;;;12.70;99.90;;;;;;4894491;29;20574;-74
2023/04/28 01:06:02;;;;;;;18.00;16.70;;;12.70;99.90;;;;;;4894563;29;21008;-74
2023/04/28 01:08:30;;;;;;;16.83;15.60;;;12.70;99.90;;;;;;4894381;29;20459;-73
2023/04/28 01:10:57;;;;;;;19.00;17.60;;;12.70;99.90;;;;;;4894258;29;20451;-73
2023/04/28 01:13:24;;;;;;;17.43;16.33;;;12.80;99.90;;;;;;4894292;29;20451;-75
2023/04/28 01:15:51;;;;;;;17.70;16.50;;;12.80;99.90;;;;;;4894036;29;20455;-73
2023/04/28 01:18:17;;;;;;;15.67;14.77;;;12.80;99.90;;;;;;4894182;29;20459;-74
2023/04/28 01:20:44;;;;;;;17.00;15.83;;;12.80;99.90;;;;;;4894303;29;20835;-74
2023/04/28 01:23:13;;;;;;;17.57;16.57;;;12.70;99.90;;;;;;4893983;29;20830;-72
2023/04/28 01:25:41;;;;;;;17.13;15.60;;;12.70;99.90;;;;;;4893939;29;20531;-73
2023/04/28 01:28:09;;;;;;;15.63;14.73;;;12.70;99.90;;;;;;4893798;29;20464;-74
2023/04/28 01:30:35;;;;;;;16.70;15.60;;;12.70;99.90;;;;;;4893043;29;20483;-73
2023/04/28 02:09:46;;;;;;;17.10;16.00;;;12.70;99.90;;;;;;5249283;23;20484;-71
2023/04/28 02:12:13;;;;;;;19.13;17.67;;;12.70;99.90;;;;;;4941924;28;20445;-71
2023/04/28 02:14:40;;;;;;;19.43;18.00;;;12.80;99.90;;;;;;4940506;29;20456;-70
2023/04/28 02:17:06;;;;;;;19.43;18.03;;;12.70;99.90;;;;;;4940099;28;20448;-71
2023/04/28 02:19:33;;;;;;;18.97;17.47;;;12.70;99.90;;;;;;4941948;28;20463;-71
2023/04/28 02:22:00;;;;;;;18.17;16.87;;;12.70;99.90;;;;;;4940466;28;20833;-71
2023/04/28 02:24:26;;;;;;;17.57;16.10;;;12.70;99.90;;;;;;4940082;29;20488;-71
2023/04/28 02:26:54;;;;;;;19.40;18.00;;;12.70;99.90;;;;;;4941513;28;20452;-71
2023/04/28 02:29:21;;;;;;;18.00;16.50;;;12.70;99.90;;;;;;4940438;28;20442;-72
2023/04/28 02:31:48;;;;;;;20.33;18.87;;;12.80;99.90;;;;;;4939995;29;20449;-72
2023/04/28 02:34:14;;;;;;;19.27;18.10;;;12.90;99.90;;;;;;4941517;29;20895;-74
2023/04/28 02:36:41;;;;;;;18.93;17.43;;;12.80;99.90;;;;;;4940655;29;20552;-72
2023/04/28 02:39:08;;;;;;;17.67;16.57;;;12.80;99.90;;;;;;4939730;28;20444;-72
2023/04/28 02:41:34;;;;;;;17.90;16.60;;;12.80;99.90;;;;;;4941955;29;20448;-72
2023/04/28 02:44:02;;;;;;;17.07;15.80;;;12.70;99.90;;;;;;4943992;28;20487;-72
2023/04/28 02:46:29;;;;;;;20.10;18.33;;;12.70;99.90;;;;;;4943296;28;20449;-73
2023/04/28 02:48:56;;;;;;;18.93;17.63;;;12.70;99.90;;;;;;4945072;28;20452;-74
2023/04/28 02:51:22;;;;;;;18.73;17.27;;;12.70;99.90;;;;;;4944126;29;20480;-73
2023/04/28 02:53:49;;;;;;;20.63;19.10;;;12.70;99.90;;;;;;4943222;28;20906;-73
2023/04/28 02:56:16;;;;;;;18.07;16.63;;;12.80;99.90;;;;;;4944828;28;20790;-74
2023/04/28 02:58:43;;;;;;;18.60;17.13;;;12.80;99.90;;;;;;4944064;28;20457;-75
2023/04/28 03:01:11;;;;;;;18.07;16.87;;;12.80;99.90;;;;;;4951060;28;20644;-73
2023/04/28 03:03:37;;;;;;;17.07;15.97;;;12.80;99.90;;;;;;4953779;28;20456;-74
2023/04/28 03:06:05;;;;;;;17.60;16.50;;;12.70;99.90;;;;;;4954077;28;20487;-73
2023/04/28 03:08:31;;;;;;;17.87;16.77;;;12.70;99.90;;;;;;4953925;28;20469;-74
2023/04/28 03:10:58;;;;;;;19.07;17.67;;;12.70;99.90;;;;;;4962976;28;20479;-73
2023/04/28 03:13:26;;;;;;;19.30;18.00;;;12.70;99.90;;;;;;4972972;28;20946;-74
2023/04/28 03:15:52;;;;;;;19.33;18.17;;;12.70;99.90;;;;;;4973171;28;20458;-73
2023/04/28 03:18:21;;;;;;;22.50;21.30;;;12.70;99.90;;;;;;4973085;28;20455;-73
2023/04/28 03:20:48;;;;;;;24.73;22.90;;;12.60;99.90;;;;;;4973035;28;20455;-71
2023/04/28 03:23:14;;;;;;;24.23;22.80;;;12.60;99.90;;;;;;4972893;28;20455;-72
2023/04/28 03:25:41;;;;;;;23.10;21.80;;;12.50;99.90;;;;;;4972566;28;20522;-72
2023/04/28 03:28:09;;;;;;;22.00;20.80;;;12.40;99.90;;;;;;4972693;28;20456;-72
2023/04/28 03:30:36;;;;;;;21.70;20.60;;;12.30;99.90;;;;;;4972804;28;20459;-72
2023/04/28 03:33:02;;;;;;;20.33;19.10;;;12.30;99.90;;;;;;4972744;28;20459;-73
2023/04/28 03:35:31;;;;;;;23.27;21.63;;;12.40;99.90;;;;;;4972738;28;21127;-73
2023/04/28 03:37:57;;;;;;;23.37;21.70;;;12.40;99.90;;;;;;4972558;28;20510;-72
2023/04/28 03:40:24;;;;;;;23.10;21.50;;;12.50;99.90;;;;;;4972494;28;20455;-73
2023/04/28 03:42:51;;;;;;;22.27;20.87;;;12.50;99.90;;;;;;4972763;28;20452;-73
2023/04/28 03:45:18;;;;;;;24.40;23.00;;;12.60;99.90;;;;;;4972571;28;20491;-71
2023/04/28 03:47:45;;;;;;;25.80;24.00;;;12.60;99.90;;;;;;4972444;28;20444;-70
2023/04/28 03:50:11;;;;;;;25.53;23.80;;;12.50;99.90;;;;;;4972339;28;20536;-71
2023/04/28 03:52:39;;;;;;;26.33;24.17;;;12.30;99.90;;;;;;4972137;28;20819;-71
2023/04/28 03:55:07;;;;;;;25.97;24.10;;;12.20;99.90;;;;;;4971658;28;20962;-70
2023/04/28 03:57:34;;;;;;;26.17;24.37;;;12.10;99.90;;;;;;4972444;28;20463;-72
2023/04/28 04:00:00;;;;;;;25.23;23.53;;;12.00;99.90;;;;;;4972286;28;20462;-73
2023/04/28 04:02:27;;;;;;;26.43;24.50;;;11.90;99.90;;;;;;4972090;28;20470;-72
2023/04/28 04:04:54;;;;;;;24.33;22.77;;;12.00;99.90;;;;;;4971917;28;20495;-73
2023/04/28 04:07:22;;;;;;;24.37;22.70;;;12.00;99.90;;;;;;4972390;28;20483;-72
2023/04/28 04:09:50;;;;;;;25.90;23.67;;;12.00;99.90;;;;;;4972248;28;20467;-72
2023/04/28 04:12:17;;;;;;;24.17;22.13;;;12.00;99.90;;;;;;4972294;28;20523;-72
2023/04/28 04:14:44;;;;;;;22.87;21.17;;;12.00;99.90;;;;;;4971793;28;20463;-72
2023/04/28 04:17:10;;;;;;;22.70;21.03;;;12.10;99.90;;;;;;4971753;28;20459;-72
2023/04/28 04:19:37;;;;;;;20.83;19.43;;;12.10;99.90;;;;;;4971686;28;20452;-72
2023/04/28 04:22:04;;;;;;;23.70;21.97;;;12.20;99.90;;;;;;4971912;28;20452;-73
2023/04/28 04:24:30;;;;;;;19.53;18.43;;;12.30;99.90;;;;;;4972073;28;20483;-72
2023/04/28 04:26:58;;;;;;;21.27;19.97;;;12.30;99.90;;;;;;4971715;28;20938;-72
2023/04/28 04:29:25;;;;;;;20.50;19.30;;;12.30;99.90;;;;;;4971611;28;20458;-72
2023/04/28 04:31:52;;;;;;;19.60;18.40;;;12.40;99.90;;;;;;4971711;28;20784;-72
2023/04/28 04:34:18;;;;;;;20.77;19.20;;;12.40;99.90;;;;;;4972799;28;20448;-72
2023/04/28 04:36:45;;;;;;;22.27;20.47;;;12.40;99.90;;;;;;4975340;28;20463;-71
2023/04/28 04:39:12;;;;;;;22.77;21.20;;;12.50;99.90;;;;;;4972621;28;20464;-72
2023/04/28 04:41:38;;;;;;;23.97;22.27;;;12.50;99.90;;;;;;4971573;28;20518;-71
2023/04/28 04:44:07;;;;;;;23.80;21.80;;;12.40;99.90;;;;;;4971426;28;20877;-71
2023/04/28 04:46:33;;;;;;;26.67;24.77;;;12.40;99.90;;;;;;4971583;28;20475;-72
2023/04/28 04:49:00;;;;;;;23.50;21.83;;;12.50;99.90;;;;;;4971546;28;20456;-72
2023/04/28 04:51:27;;;;;;;23.10;21.37;;;12.40;99.90;;;;;;4971310;28;21076;-72
2023/04/28 04:53:55;;;;;;;22.50;21.20;;;12.50;99.90;;;;;;4971172;28;20459;-73
2023/04/28 04:56:22;;;;;;;24.93;23.43;;;12.50;99.90;;;;;;4971261;28;20462;-72
2023/04/28 04:58:50;;;;;;;25.80;23.87;;;12.50;99.90;;;;;;4971856;28;20456;-72
2023/04/28 05:01:18;;;;;;;27.30;25.13;;;12.50;99.90;;;;;;4959335;28;20464;-72
2023/04/28 05:03:45;;;;;;;28.03;26.03;;;12.50;99.90;;;;;;4952486;29;20457;-69
2023/04/28 05:06:11;;;;;;;31.30;29.23;;;12.40;99.90;;;;;;4952194;28;20510;-70
2023/04/28 05:08:38;;;;;;;34.83;32.63;;;12.30;99.90;;;;;;4952237;29;20464;-70
2023/04/28 05:11:05;;;;;;;33.20;31.10;;;12.20;99.90;;;;;;4951959;29;20564;-72
2023/04/28 05:13:32;;;;;;;34.60;32.20;;;12.00;99.90;;;;;;4952207;29;20456;-70
2023/04/28 05:15:58;;;;;;;39.97;37.30;;;12.00;99.90;;;;;;4951915;29;20483;-70
2023/04/28 05:18:26;;;;;;;41.57;38.67;;;11.90;99.90;;;;;;4952059;29;20452;-72
2023/04/28 05:20:53;;;;;;;41.90;39.30;;;11.90;99.90;;;;;;4951897;29;20460;-72
2023/04/28 05:23:20;;;;;;;41.73;38.43;;;11.90;99.90;;;;;;4951975;29;20452;-71
2023/04/28 05:25:46;;;;;;;41.73;38.63;;;11.90;99.90;;;;;;4952035;29;20825;-72
2023/04/28 05:28:13;;;;;;;42.23;39.43;;;11.90;99.90;;;;;;4951812;29;20479;-72
2023/04/28 05:30:40;;;;;;;40.83;37.70;;;11.90;99.90;;;;;;4951758;29;20459;-71
2023/04/28 05:33:06;;;;;;;40.33;37.10;;;11.90;99.90;;;;;;4951779;29;20468;-72
2023/04/28 05:35:34;;;;;;;41.97;38.97;;;11.90;99.90;;;;;;4951854;29;20449;-70
2023/04/28 05:38:02;;;;;;;42.70;39.37;;;11.90;99.90;;;;;;4951840;29;20457;-70
2023/04/28 05:40:29;;;;;;;41.53;38.00;;;11.90;99.90;;;;;;4951591;29;20464;-70
2023/04/28 05:42:56;;;;;;;40.00;37.10;;;11.90;99.90;;;;;;4951600;29;20465;-70
2023/04/28 05:45:23;;;;;;;39.10;36.40;;;11.90;99.90;;;;;;4951493;29;21072;-70
2023/04/28 05:47:50;;;;;;;38.90;36.30;;;11.90;99.90;;;;;;4951624;29;20467;-70
2023/04/28 05:50:16;;;;;;;37.57;35.00;;;11.90;99.90;;;;;;4951675;29;20460;-70
2023/04/28 05:52:44;;;;;;;37.03;34.60;;;12.00;99.90;;;;;;4951625;29;20453;-70
2023/04/28 05:55:11;;;;;;;37.23;34.73;;;12.00;99.90;;;;;;4951389;29;20455;-70
2023/04/28 05:57:38;;;;;;;36.57;34.27;;;12.10;99.90;;;;;;4951324;29;20464;-70
2023/04/28 06:00:05;;;;;;;37.30;34.60;;;12.10;99.90;;;;;;4951657;29;20456;-70
2023/04/28 06:02:32;;;;;;;36.50;34.10;;;12.10;99.90;;;;;;4951687;29;20512;-72
2023/04/28 06:04:59;;;;;;;38.03;35.53;;;12.10;99.90;;;;;;4951377;29;20492;-72
2023/04/28 06:07:26;;;;;;;40.90;37.43;;;12.10;99.90;;;;;;4951220;29;20472;-73
2023/04/28 06:09:54;;;;;;;38.23;35.77;;;12.10;99.90;;;;;;4951270;29;20861;-72
2023/04/28 06:12:20;;;;;;;40.60;37.57;;;12.00;99.90;;;;;;4951374;29;20457;-72
2023/04/28 06:14:47;;;;;;;51.17;41.60;;;12.00;99.90;;;;;;4951705;29;20453;-72
2023/04/28 06:17:14;;;;;;;42.10;38.83;;;12.00;99.90;;;;;;4952771;28;20460;-73
2023/04/28 06:19:40;;;;;;;46.20;42.50;;;12.00;99.90;;;;;;4955274;29;20863;-73
2023/04/28 06:22:07;;;;;;;43.80;40.60;;;11.90;99.90;;;;;;4955128;29;20865;-73
2023/04/28 06:24:34;;;;;;;44.30;41.00;;;11.90;99.90;;;;;;4955202;29;20955;-73
2023/04/28 06:27:02;;;;;;;41.60;38.60;;;12.00;99.90;;;;;;4954991;29;20947;-75
2023/04/28 06:29:29;;;;;;;43.80;40.70;;;11.90;99.90;;;;;;4944225;29;20472;-74
2023/04/28 06:31:56;;;;;;;40.93;37.87;;;12.00;99.90;;;;;;4955586;29;20483;-75
2023/04/28 06:34:26;;;;;;;39.10;36.33;;;12.00;99.90;;;;;;4954810;28;20456;-75
2023/04/28 06:36:52;;;;;;;37.43;34.70;;;12.00;99.90;;;;;;4954735;28;20463;-73
2023/04/28 06:39:19;;;;;;;36.23;33.73;;;12.00;99.90;;;;;;4955186;29;20937;-73
2023/04/28 06:41:46;;;;;;;34.93;32.73;;;12.00;99.90;;;;;;4952857;29;20456;-73
2023/04/28 06:44:14;;;;;;;36.30;33.70;;;11.90;99.90;;;;;;4954014;29;20978;-74
2023/04/28 06:46:41;;;;;;;35.27;33.07;;;11.90;99.90;;;;;;4954700;29;20495;-74
2023/04/28 06:49:07;;;;;;;38.20;35.50;;;11.90;99.90;;;;;;4954260;29;20457;-75
2023/04/28 06:51:34;;;;;;;35.53;33.00;;;11.90;99.90;;;;;;4954606;28;20484;-74
2023/04/28 06:54:01;;;;;;;37.10;34.67;;;12.00;99.90;;;;;;4954434;29;20459;-74
2023/04/28 06:56:28;;;;;;;38.40;35.87;;;12.00;99.90;;;;;;4954067;29;20444;-74
2023/04/28 06:58:55;;;;;;;38.07;35.47;;;12.00;99.90;;;;;;4958394;28;20829;-74
2023/04/28 07:01:23;;;;;;;38.00;35.27;;;12.00;99.90;;;;;;4969273;28;20447;-74
2023/04/28 07:03:50;;;;;;;36.63;33.93;;;12.00;99.90;;;;;;4956265;28;20467;-74
2023/04/28 07:06:17;;;;;;;39.13;36.27;;;12.00;99.90;;;;;;4957593;28;20478;-74
2023/04/28 07:08:44;;;;;;;40.87;37.17;;;12.00;99.90;;;;;;4973692;28;20464;-74
2023/04/28 07:11:10;;;;;;;38.90;36.47;;;12.00;99.90;;;;;;4973364;28;21045;-74
2023/04/28 07:13:37;;;;;;;38.53;36.13;;;12.00;99.90;;;;;;4973767;28;20551;-75
2023/04/28 07:16:04;;;;;;;35.37;33.07;;;12.00;99.90;;;;;;4961670;28;20494;-74
2023/04/28 07:18:32;;;;;;;36.90;34.60;;;12.00;99.90;;;;;;4955435;29;20534;-74
2023/04/28 07:20:59;;;;;;;35.07;32.40;;;12.00;99.90;;;;;;4954092;29;20455;-74
2023/04/28 07:23:26;;;;;;;34.90;32.80;;;12.10;99.90;;;;;;4954092;29;20994;-74
2023/04/28 07:25:52;;;;;;;35.77;33.57;;;12.10;99.90;;;;;;4953586;29;20495;-74
2023/04/28 07:28:20;;;;;;;35.90;33.60;;;12.20;99.90;;;;;;4953418;28;20452;-71
2023/04/28 07:30:46;;;;;;;37.60;35.30;;;12.30;99.90;;;;;;4955936;29;20456;-72
2023/04/28 07:33:13;;;;;;;36.50;34.23;;;12.30;99.90;;;;;;4969134;28;20451;-73
2023/04/28 07:35:41;;;;;;;35.87;33.67;;;12.30;99.90;;;;;;4974154;28;20788;-73
2023/04/28 07:38:08;;;;;;;35.30;33.20;;;12.30;99.90;;;;;;4966697;28;20510;-73
2023/04/28 07:40:35;;;;;;;37.43;34.97;;;12.30;99.90;;;;;;4972754;28;20458;-74
2023/04/28 07:43:02;;;;;;;37.60;34.90;;;12.40;99.90;;;;;;4973246;28;20454;-73
2023/04/28 07:45:29;;;;;;;37.50;34.90;;;12.40;99.90;;;;;;4972684;28;20487;-73
2023/04/28 07:47:56;;;;;;;37.43;34.83;;;12.50;99.90;;;;;;4972506;28;20910;-73
2023/04/28 07:50:22;;;;;;;38.77;36.03;;;12.50;99.90;;;;;;4973167;28;20463;-74
2023/04/28 07:52:50;;;;;;;40.57;37.27;;;12.60;99.90;;;;;;4963602;28;20461;-74
2023/04/28 07:55:17;;;;;;;39.60;37.07;;;12.60;99.90;;;;;;4951864;29;20449;-75
2023/04/28 07:57:44;;;;;;;40.00;37.27;;;12.70;99.90;;;;;;4953484;29;20471;-71
2023/04/28 08:00:11;;;;;;;40.27;37.57;;;12.70;99.90;;;;;;4953362;29;20461;-74
2023/04/28 08:02:38;;;;;;;41.03;37.60;;;12.80;99.90;;;;;;4953242;28;20452;-72
2023/04/28 08:05:06;;;;;;;43.63;40.60;;;12.90;99.90;;;;;;4953318;29;20463;-72
2023/04/28 08:07:33;;;;;;;40.30;37.80;;;12.90;99.90;;;;;;4953310;29;20476;-72
2023/04/28 08:10:01;;;;;;;41.80;39.20;;;12.90;99.90;;;;;;4952918;29;20449;-73
2023/04/28 08:12:28;;;;;;;43.27;40.47;;;12.90;99.90;;;;;;4953339;29;20830;-75
2023/04/28 08:14:54;;;;;;;38.40;35.90;;;13.00;99.90;;;;;;4953123;28;20971;-73
2023/04/28 08:17:21;;;;;;;39.23;36.47;;;13.00;99.90;;;;;;4952966;28;20500;-74
2023/04/28 08:19:49;;;;;;;39.90;37.40;;;13.00;99.90;;;;;;4953087;29;20456;-76
2023/04/28 08:22:15;;;;;;;42.33;39.27;;;13.00;99.90;;;;;;4971439;28;20954;-75
2023/04/28 08:24:42;;;;;;;44.13;41.00;;;13.10;99.90;;;;;;4972022;28;20456;-75
2023/04/28 08:27:11;;;;;;;41.03;38.50;;;13.30;99.90;;;;;;4971726;28;20480;-75
2023/04/28 08:29:39;;;;;;;42.00;38.97;;;13.40;99.90;;;;;;4971902;28;20455;-75
2023/04/28 08:32:05;;;;;;;40.87;38.17;;;13.50;99.90;;;;;;4972404;28;20490;-76
2023/04/28 08:34:32;;;;;;;40.87;38.33;;;13.50;99.90;;;;;;4972422;28;20483;-76
2023/04/28 08:36:59;;;;;;;42.77;40.20;;;13.50;99.90;;;;;;4972001;28;20558;-76
2023/04/28 08:39:26;;;;;;;41.30;38.73;;;13.50;99.90;;;;;;4971718;28;20447;-76
2023/04/28 08:41:53;;;;;;;43.47;40.90;;;13.50;99.90;;;;;;4971929;28;20456;-76
2023/04/28 08:44:22;;;;;;;44.40;41.70;;;13.60;99.90;;;;;;4972012;28;20508;-75
2023/04/28 08:46:52;;;;;;;42.37;39.47;;;13.80;99.90;;;;;;4972274;28;20487;-75
2023/04/28 08:49:22;;;;;;;40.70;38.07;;;14.10;99.90;;;;;;4971952;28;20455;-76
2023/04/28 08:51:53;;;;;;;44.13;41.33;;;14.40;99.90;;;;;;4972055;28;20818;-75
2023/04/28 08:54:21;;;;;;;47.30;44.50;;;14.50;99.90;;;;;;4971707;28;20813;-76
2023/04/28 08:56:49;;;;;;;47.47;44.13;;;14.60;99.90;;;;;;4971904;28;20454;-75
2023/04/28 08:59:17;;;;;;;45.93;43.23;;;14.70;99.90;;;;;;4971702;28;20487;-75
2023/04/28 09:01:48;;;;;;;43.73;41.03;;;14.80;99.90;;;;;;4971715;28;20460;-76
2023/04/28 09:04:17;;;;;;;46.03;43.27;;;14.90;99.90;;;;;;4971645;28;20479;-75
2023/04/28 09:06:44;;;;;;;46.97;44.03;;;14.90;99.90;;;;;;4971399;28;20498;-75
2023/04/28 09:09:21;;;;;;;47.90;44.97;;;14.90;99.90;;;;;;4971420;28;20919;-74
2023/04/28 09:11:52;;;;;;;46.90;44.07;;;14.80;99.90;;;;;;4971567;28;20490;-74
2023/04/28 09:14:19;;;;;;;48.30;45.10;;;14.90;99.90;;;;;;4971940;28;20451;-74
2023/04/28 09:16:47;;;;;;;46.83;44.10;;;15.00;99.90;;;;;;4971566;28;20851;-76
2023/04/28 09:19:14;;;;;;;48.37;44.87;;;15.00;99.90;;;;;;4968209;28;20490;-76
2023/04/28 09:21:49;;;;;;;51.30;47.77;;;15.20;99.90;;;;;;4969838;28;20563;-76
2023/04/28 09:24:30;;;;;;;48.43;45.23;;;15.10;99.90;;;;;;4969737;28;20554;-77
2023/04/28 09:26:57;;;;;;;51.50;48.03;;;15.10;99.90;;;;;;4969665;28;20582;-76
2023/04/28 09:29:23;;;;;;;49.37;46.27;;;14.90;99.90;;;;;;4969434;28;20455;-78
2023/04/28 09:31:52;;;;;;;49.07;45.87;;;14.70;99.90;;;;;;4971286;28;20455;-77
2023/04/28 09:34:19;;;;;;;46.33;43.53;;;14.80;99.90;;;;;;4970564;28;20534;-77
2023/04/28 09:36:46;;;;;;;45.83;42.77;;;15.00;99.90;;;;;;4971592;28;20467;-77
2023/04/28 09:39:13;;;;;;;46.10;43.40;;;14.90;99.90;;;;;;4970188;28;20455;-77
2023/04/28 09:41:41;;;;;;;40.80;38.30;;;15.00;99.90;;;;;;4969526;28;20729;-76
2023/04/28 09:44:15;;;;;;;44.03;41.50;;;15.00;99.90;;;;;;4969418;28;20463;-76
2023/04/28 09:46:43;;;;;;;43.40;40.80;;;15.10;99.90;;;;;;4969177;28;21259;-75
2023/04/28 09:49:12;;;;;;;42.07;39.23;;;15.20;99.90;;;;;;4969404;28;20462;-75
2023/04/28 09:51:39;;;;;;;41.57;39.07;;;15.20;99.90;;;;;;4968571;28;20451;-75
2023/04/28 09:54:06;;;;;;;41.47;39.07;;;15.00;99.90;;;;;;4969587;28;20815;-76
2023/04/28 09:56:37;;;;;;;44.50;41.53;;;15.10;99.90;;;;;;4969330;28;20462;-74
2023/04/28 09:59:04;;;;;;;43.37;40.30;;;15.50;99.90;;;;;;4969455;28;20463;-74
2023/04/28 10:01:33;;;;;;;47.43;44.23;;;15.60;99.90;;;;;;4968989;28;20543;-75
2023/04/28 10:04:02;;;;;;;47.73;44.63;;;16.20;99.90;;;;;;4969434;28;20452;-75
2023/04/28 10:06:30;;;;;;;48.40;45.37;;;16.60;99.90;;;;;;4968776;28;20576;-73
2023/04/28 10:08:59;;;;;;;44.57;41.93;;;17.00;99.90;;;;;;4968878;28;20466;-75
2023/04/28 10:11:27;;;;;;;39.87;37.57;;;17.30;99.90;;;;;;4969644;28;20785;-74
2023/04/28 10:13:54;;;;;;;40.53;38.33;;;17.30;99.90;;;;;;4968911;28;20451;-75
2023/04/28 10:16:22;;;;;;;37.17;35.27;;;17.70;99.90;;;;;;4969135;28;20518;-76
2023/04/28 10:18:50;;;;;;;35.47;33.77;;;18.20;99.90;;;;;;4969558;28;20459;-76
2023/04/28 10:21:19;;;;;;;33.87;32.17;;;18.20;99.90;;;;;;4969640;28;20452;-74
2023/04/28 10:24:08;;;;;;;33.33;31.50;;;17.80;99.90;;;;;;4969116;28;20452;-75
2023/04/28 10:27:07;;;;;;;32.60;30.80;;;17.90;99.90;;;;;;4969630;28;20526;-74
2023/04/28 10:29:34;;;;;;;29.07;27.57;;;18.90;99.90;;;;;;4910220;29;20927;-74
2023/04/28 10:32:18;;;;;;;23.03;21.87;;;19.50;99.90;;;;;;4956328;28;20456;-74
2023/04/28 10:34:45;;;;;;;19.70;18.80;;;19.70;99.90;;;;;;4969678;28;20873;-73
2023/04/28 10:37:13;;;;;;;19.20;18.33;;;19.70;99.90;;;;;;4969354;28;20455;-73
2023/04/28 10:40:01;;;;;;;17.10;16.30;;;19.80;99.90;;;;;;4969127;28;20447;-73
2023/04/28 10:42:53;;;;;;;19.13;18.20;;;20.10;99.90;;;;;;4968715;28;20799;-73
2023/04/28 10:45:59;;;;;;;17.90;16.80;;;20.60;99.90;;;;;;4968918;28;20463;-73
2023/04/28 10:49:05;;;;;;;16.20;15.50;;;21.20;99.90;;;;;;4968754;28;20451;-72
2023/04/28 10:51:36;;;;;;;17.40;16.60;;;20.80;99.90;;;;;;4969451;28;20447;-71
2023/04/28 10:54:19;;;;;;;16.50;15.90;;;20.80;99.90;;;;;;4969570;28;20491;-73
2023/04/28 10:57:24;;;;;;;17.80;17.20;;;20.30;99.90;;;;;;4969779;28;20444;-73
2023/04/28 10:59:51;;;;;;;17.20;16.40;;;20.10;99.90;;;;;;4969746;28;20451;-75
2023/04/28 11:02:40;;;;;;;17.47;16.67;;;19.80;99.90;;;;;;4969523;28;20454;-73
2023/04/28 11:05:11;;;;;;;16.50;15.63;;;19.40;99.90;;;;;;4972534;28;20459;-73
2023/04/28 11:07:38;;;;;;;15.67;14.97;;;19.80;99.90;;;;;;4972562;28;20598;-73
2023/04/28 11:10:06;;;;;;;15.03;14.53;;;20.00;99.90;;;;;;4972554;28;20451;-73
2023/04/28 11:12:34;;;;;;;14.73;14.03;;;20.40;99.90;;;;;;4972976;28;20459;-74
2023/04/28 11:15:12;;;;;;;15.43;14.83;;;20.90;99.90;;;;;;4972624;28;20937;-73
2023/04/28 11:17:41;;;;;;;15.70;15.13;;;21.00;99.90;;;;;;4972319;28;20661;-72
2023/04/28 11:20:13;;;;;;;13.67;13.13;;;21.30;99.90;;;;;;4972255;28;20485;-73
2023/04/28 11:22:40;;;;;;;13.53;13.07;;;21.80;99.90;;;;;;4967072;28;20525;-72
2023/04/28 11:25:08;;;;;;;13.57;13.07;;;22.20;99.90;;;;;;4972079;28;20464;-73
2023/04/28 11:27:36;;;;;;;14.00;13.50;;;22.70;99.90;;;;;;4972151;28;20499;-73
2023/04/28 11:30:05;;;;;;;15.80;15.20;;;22.90;99.90;;;;;;4972448;28;20815;-73
2023/04/28 11:32:33;;;;;;;14.33;13.73;;;22.80;99.90;;;;;;4972380;28;20578;-72
2023/04/28 11:34:59;;;;;;;13.40;12.90;;;22.50;99.90;;;;;;4972002;28;20475;-73
2023/04/28 11:37:26;;;;;;;13.93;13.50;;;22.20;99.90;;;;;;4971896;28;20459;-73
2023/04/28 11:39:53;;;;;;;14.43;13.20;;;21.90;99.90;;;;;;4971799;28;20622;-73
2023/04/28 11:42:20;;;;;;;13.90;13.50;;;22.10;99.90;;;;;;4972682;28;20831;-73
2023/04/28 11:44:53;;;;;;;13.10;12.70;;;22.50;99.90;;;;;;4972214;28;20526;-70
2023/04/28 11:47:29;;;;;;;13.80;13.30;;;22.80;99.90;;;;;;4972249;28;20505;-72
2023/04/28 11:49:56;;;;;;;14.17;13.67;;;23.20;99.90;;;;;;4971910;28;20547;-73
2023/04/28 11:52:24;;;;;;;12.30;11.90;;;22.80;99.90;;;;;;4971568;28;20833;-72
2023/04/28 11:54:54;;;;;;;13.83;13.03;;;22.70;99.90;;;;;;4971893;28;20460;-72
2023/04/28 11:57:22;;;;;;;13.27;12.67;;;22.40;99.90;;;;;;4971816;28;20455;-72
2023/04/28 11:59:50;;;;;;;13.30;12.80;;;22.60;99.90;;;;;;4972235;28;20533;-72
2023/04/28 12:02:26;;;;;;;13.10;12.70;;;23.10;99.90;;;;;;4971882;28;20462;-72
2023/04/28 12:04:53;;;;;;;14.50;14.03;;;22.80;99.90;;;;;;4971791;28;20459;-72
2023/04/28 12:07:21;;;;;;;13.50;12.90;;;22.40;99.90;;;;;;4954900;28;20496;-72
2023/04/28 12:09:49;;;;;;;13.43;12.83;;;22.30;99.90;;;;;;4952265;29;20451;-72
2023/04/28 12:12:28;;;;;;;13.93;13.43;;;22.30;99.90;;;;;;4952289;29;20460;-74
2023/04/28 12:14:58;;;;;;;13.73;13.20;;;22.40;99.90;;;;;;4951426;28;20471;-72
2023/04/28 12:17:26;;;;;;;13.60;13.20;;;22.10;99.90;;;;;;4951992;28;21279;-72
2023/04/28 12:19:52;;;;;;;12.90;12.50;;;22.10;99.90;;;;;;4952067;28;20456;-70
2023/04/28 12:22:19;;;;;;;14.33;13.73;;;22.10;99.90;;;;;;4946987;28;20476;-72
2023/04/28 12:24:46;;;;;;;12.87;12.47;;;21.80;99.90;;;;;;4952033;28;20476;-72
2023/04/28 12:27:20;;;;;;;12.17;11.77;;;22.00;99.90;;;;;;4951484;28;20493;-73
2023/04/28 12:29:47;;;;;;;12.10;11.70;;;21.90;99.90;;;;;;4952191;28;20919;-72
2023/04/28 12:32:16;;;;;;;12.40;11.90;;;21.60;99.90;;;;;;4951904;28;20889;-72
2023/04/28 12:34:44;;;;;;;14.00;13.43;;;21.60;99.90;;;;;;4951913;28;20838;-72
2023/04/28 12:37:11;;;;;;;13.60;13.10;;;21.80;99.90;;;;;;4951794;28;20453;-72
2023/04/28 12:39:41;;;;;;;12.57;12.10;;;21.60;99.90;;;;;;4951969;28;20495;-72
2023/04/28 12:42:08;;;;;;;12.43;11.93;;;21.30;99.90;;;;;;4952787;28;20464;-71
2023/04/28 12:44:36;;;;;;;12.70;12.30;;;21.20;99.90;;;;;;4952372;28;20452;-71
2023/04/28 12:47:04;;;;;;;14.10;13.60;;;21.00;99.90;;;;;;4951794;28;20498;-70
2023/04/28 12:49:32;;;;;;;11.77;11.37;;;21.20;99.90;;;;;;4951868;28;20803;-72
2023/04/28 12:51:59;;;;;;;13.77;13.27;;;21.30;99.90;;;;;;4951443;28;20496;-72
2023/04/28 12:54:26;;;;;;;13.30;12.90;;;20.90;99.90;;;;;;4951388;28;20464;-72
2023/04/28 12:56:54;;;;;;;15.53;15.03;;;20.20;99.90;;;;;;4951416;28;20484;-72
2023/04/28 12:59:21;;;;;;;17.47;16.87;;;19.20;99.90;;;;;;4951373;28;20460;-72
2023/04/28 13:01:48;;;;;;;23.80;22.60;;;18.60;99.90;;;;;;4951473;28;20920;-74
2023/04/28 13:04:14;;;;;;;29.20;27.90;;;17.80;99.90;;;;;;4951326;28;20464;-74
2023/04/28 13:06:42;;;;;;;29.40;28.00;;;17.50;99.90;;;;;;4951020;28;20905;-75
2023/04/28 13:09:10;;;;;;;27.13;25.83;;;17.30;99.90;;;;;;4949177;28;20969;-75
2023/04/28 13:11:36;;;;;;;27.70;26.60;;;17.10;99.90;;;;;;4968478;28;20471;-75